createdAt,value
2018-04-15T00:00:05.299Z,101472.45
2018-04-15T00:00:27.371Z,101473.91
2018-04-15T00:00:50.204Z,101469.45
2018-04-15T00:01:12.274Z,101471.30
2018-04-15T00:01:34.337Z,101466.14
2018-04-15T00:01:56.433Z,101473.06
2018-04-15T00:02:18.514Z,101463.38
2018-04-15T00:02:40.677Z,101465.53
2018-04-15T00:03:02.723Z,101464.77
2018-04-15T00:03:25.548Z,101468.68
2018-04-15T00:03:47.603Z,101471.83
2018-04-15T00:04:09.665Z,101468.38
2018-04-15T00:04:32.492Z,101467.91
2018-04-15T00:04:54.542Z,101466.14
2018-04-15T00:05:17.370Z,101466.22
2018-04-15T00:05:39.442Z,101467.06
2018-04-15T00:06:01.505Z,101469.22
2018-04-15T00:06:24.334Z,101470.14
2018-04-15T00:06:47.361Z,101459.69
2018-04-15T00:07:09.555Z,101466.22
2018-04-15T00:07:32.434Z,101467.91
2018-04-15T00:07:54.528Z,101467.14
2018-04-15T00:08:16.592Z,101460.22
2018-04-15T00:08:39.407Z,101466.09
2018-04-15T00:09:02.238Z,101466.02
2018-04-15T00:09:25.085Z,101469.83
2018-04-15T00:09:47.893Z,101466.75
2018-04-15T00:10:10.715Z,101468.52
2018-04-15T00:10:32.785Z,101467.79
2018-04-15T00:10:54.835Z,101466.48
2018-04-15T00:11:16.947Z,101462.45
2018-04-15T00:11:39.006Z,101463.76
2018-04-15T00:12:01.101Z,101463.76
2018-04-15T00:12:23.168Z,101467.14
2018-04-15T00:12:45.991Z,101466.30
2018-04-15T00:13:08.839Z,101468.52
2018-04-15T00:13:30.906Z,101463.76
2018-04-15T00:13:52.965Z,101463.30
2018-04-15T00:14:15.779Z,101458.53
2018-04-15T00:14:38.600Z,101469.44
2018-04-15T00:15:00.659Z,101467.33
2018-04-15T00:15:23.500Z,101467.33
2018-04-15T00:15:45.554Z,101464.53
2018-04-15T00:16:07.606Z,101463.41
2018-04-15T00:16:29.672Z,101461.53
2018-04-15T00:16:51.755Z,101462.91
2018-04-15T00:17:14.611Z,101463.87
2018-04-15T00:17:36.662Z,101463.87
2018-04-15T00:17:58.694Z,101463.02
2018-04-15T00:18:20.785Z,101461.41
2018-04-15T00:18:42.856Z,101463.09
2018-04-15T00:19:05.694Z,101462.41
2018-04-15T00:19:28.528Z,101459.18
2018-04-15T00:19:51.419Z,101462.72
2018-04-15T00:20:13.560Z,101458.72
2018-04-15T00:20:35.636Z,101457.41
2018-04-15T00:20:57.686Z,101454.80
2018-04-15T00:21:19.777Z,101459.18
2018-04-15T00:21:41.848Z,101455.33
2018-04-15T00:22:04.777Z,101457.03
2018-04-15T00:22:26.827Z,101454.88
2018-04-15T00:22:48.959Z,101450.56
2018-04-15T00:23:11.035Z,101452.27
2018-04-15T00:23:33.839Z,101449.65
2018-04-15T00:23:55.891Z,101452.27
2018-04-15T00:24:17.950Z,101452.88
2018-04-15T00:24:40.000Z,101442.80
2018-04-15T00:25:02.031Z,101444.50
2018-04-15T00:25:24.093Z,101444.11
2018-04-15T00:25:46.142Z,101443.73
2018-04-15T00:26:08.206Z,101447.72
2018-04-15T00:26:31.016Z,101453.80
2018-04-15T00:26:53.067Z,101440.73
2018-04-15T00:27:15.893Z,101443.41
2018-04-15T00:27:38.744Z,101444.34
2018-04-15T00:28:00.799Z,101442.64
2018-04-15T00:28:22.855Z,101447.88
2018-04-15T00:28:44.937Z,101446.95
2018-04-15T00:29:06.996Z,101444.41
2018-04-15T00:29:29.820Z,101437.80
2018-04-15T00:29:51.993Z,101441.27
2018-04-15T00:30:14.054Z,101447.80
2018-04-15T00:30:36.122Z,101446.49
2018-04-15T00:30:58.188Z,101444.80
2018-04-15T00:31:20.248Z,101439.03
2018-04-15T00:31:42.311Z,101443.87
2018-04-15T00:32:04.381Z,101440.42
2018-04-15T00:32:26.449Z,101441.19
2018-04-15T00:32:48.529Z,101439.88
2018-04-15T00:33:10.588Z,101442.11
2018-04-15T00:33:32.652Z,101440.87
2018-04-15T00:33:54.706Z,101442.11
2018-04-15T00:34:16.768Z,101439.11
2018-04-15T00:34:39.592Z,101437.03
2018-04-15T00:35:02.469Z,101440.11
2018-04-15T00:35:24.527Z,101439.57
2018-04-15T00:35:46.592Z,101442.26
2018-04-15T00:36:08.769Z,101444.48
2018-04-15T00:36:30.866Z,101437.95
2018-04-15T00:36:52.913Z,101436.19
2018-04-15T00:37:15.740Z,101439.26
2018-04-15T00:37:37.804Z,101438.73
2018-04-15T00:37:59.881Z,101436.58
2018-04-15T00:38:21.938Z,101434.88
2018-04-15T00:38:43.993Z,101433.04
2018-04-15T00:39:06.069Z,101434.42
2018-04-15T00:39:28.115Z,101436.65
2018-04-15T00:39:50.175Z,101441.95
2018-04-15T00:40:13.000Z,101435.88
2018-04-15T00:40:35.054Z,101433.34
2018-04-15T00:40:57.105Z,101431.22
2018-04-15T00:41:19.176Z,101435.48
2018-04-15T00:41:41.280Z,101431.88
2018-04-15T00:42:04.121Z,101431.95
2018-04-15T00:42:26.975Z,101427.58
2018-04-15T00:42:49.055Z,101428.88
2018-04-15T00:43:11.144Z,101426.27
2018-04-15T00:43:33.195Z,101425.03
2018-04-15T00:43:55.257Z,101430.27
2018-04-15T00:44:17.402Z,101432.03
2018-04-15T00:44:39.454Z,101419.81
2018-04-15T00:45:02.239Z,101425.88
2018-04-15T00:45:24.284Z,101429.80
2018-04-15T00:45:46.309Z,101427.66
2018-04-15T00:46:08.359Z,101420.66
2018-04-15T00:46:30.426Z,101422.08
2018-04-15T00:46:52.486Z,101426.14
2018-04-15T00:47:15.300Z,101420.38
2018-04-15T00:47:37.380Z,101423.84
2018-04-15T00:47:59.449Z,101424.84
2018-04-15T00:48:22.356Z,101420.07
2018-04-15T00:48:44.393Z,101424.53
2018-04-15T00:49:07.228Z,101428.83
2018-04-15T00:49:30.077Z,101430.14
2018-04-15T00:49:52.913Z,101429.22
2018-04-15T00:50:15.726Z,101430.14
2018-04-15T00:50:37.789Z,101422.22
2018-04-15T00:50:59.839Z,101427.14
2018-04-15T00:51:21.901Z,101425.69
2018-04-15T00:51:44.732Z,101422.15
2018-04-15T00:52:07.552Z,101424.91
2018-04-15T00:52:29.608Z,101436.67
2018-04-15T00:52:51.664Z,101429.30
2018-04-15T00:53:13.733Z,101429.22
2018-04-15T00:53:35.819Z,101434.06
2018-04-15T00:53:57.877Z,101434.91
2018-04-15T00:54:19.938Z,101439.67
2018-04-15T00:54:42.001Z,101437.52
2018-04-15T00:55:04.019Z,101437.98
2018-04-15T00:55:26.080Z,101440.28
2018-04-15T00:55:48.139Z,101440.13
2018-04-15T00:56:10.967Z,101436.21
2018-04-15T00:56:33.782Z,101435.36
2018-04-15T00:56:55.835Z,101444.13
2018-04-15T00:57:17.891Z,101443.66
2018-04-15T00:57:39.946Z,101443.20
2018-04-15T00:58:02.013Z,101438.91
2018-04-15T00:58:24.076Z,101441.05
2018-04-15T00:58:46.167Z,101442.44
2018-04-15T00:59:08.221Z,101439.75
2018-04-15T00:59:31.054Z,101440.13
2018-04-15T00:59:53.131Z,101440.59
2018-04-15T01:00:15.162Z,101443.59
2018-04-15T01:00:37.358Z,101445.36
2018-04-15T01:00:59.418Z,101438.98
2018-04-15T01:01:21.475Z,101449.92
2018-04-15T01:01:43.533Z,101449.08
2018-04-15T01:02:05.599Z,101441.70
2018-04-15T01:02:27.669Z,101443.54
2018-04-15T01:02:49.782Z,101440.85
2018-04-15T01:03:11.840Z,101440.93
2018-04-15T01:03:34.865Z,101439.63
2018-04-15T01:03:56.972Z,101446.00
2018-04-15T01:04:19.026Z,101446.62
2018-04-15T01:04:41.087Z,101441.77
2018-04-15T01:05:03.141Z,101441.77
2018-04-15T01:05:25.964Z,101439.16
2018-04-15T01:05:48.381Z,101438.62
2018-04-15T01:06:10.441Z,101441.08
2018-04-15T01:06:32.492Z,101439.23
2018-04-15T01:06:54.549Z,101443.62
2018-04-15T01:07:16.611Z,101439.77
2018-04-15T01:07:38.944Z,101441.54
2018-04-15T01:08:01.009Z,101443.16
2018-04-15T01:08:23.064Z,101441.00
2018-04-15T01:08:45.229Z,101441.47
2018-04-15T01:09:07.322Z,101441.39
2018-04-15T01:09:29.386Z,101440.16
2018-04-15T01:09:52.224Z,101441.84
2018-04-15T01:10:15.050Z,101441.84
2018-04-15T01:10:37.110Z,101446.23
2018-04-15T01:10:59.171Z,101437.55
2018-04-15T01:11:21.249Z,101438.47
2018-04-15T01:11:43.322Z,101443.69
2018-04-15T01:12:05.374Z,101440.62
2018-04-15T01:12:27.426Z,101438.92
2018-04-15T01:12:49.481Z,101438.54
2018-04-15T01:13:12.292Z,101434.55
2018-04-15T01:13:34.361Z,101439.84
2018-04-15T01:13:56.416Z,101438.54
2018-04-15T01:14:18.515Z,101436.39
2018-04-15T01:14:40.596Z,101436.84
2018-04-15T01:15:03.415Z,101441.08
2018-04-15T01:15:26.237Z,101437.62
2018-04-15T01:15:48.304Z,101436.31
2018-04-15T01:16:10.364Z,101432.78
2018-04-15T01:16:32.423Z,101433.70
2018-04-15T01:16:55.244Z,101432.39
2018-04-15T01:17:18.076Z,101425.39
2018-04-15T01:17:40.899Z,101427.16
2018-04-15T01:18:03.057Z,101430.70
2018-04-15T01:18:25.106Z,101423.24
2018-04-15T01:18:47.169Z,101425.39
2018-04-15T01:19:09.988Z,101421.94
2018-04-15T01:19:32.083Z,101428.47
2018-04-15T01:19:54.158Z,101423.32
2018-04-15T01:20:16.218Z,101423.78
2018-04-15T01:20:38.270Z,101424.23
2018-04-15T01:21:01.194Z,101422.94
2018-04-15T01:21:23.263Z,101418.55
2018-04-15T01:21:45.325Z,101425.09
2018-04-15T01:22:07.376Z,101421.55
2018-04-15T01:22:29.444Z,101414.63
2018-04-15T01:22:51.489Z,101411.94
2018-04-15T01:23:14.325Z,101410.70
2018-04-15T01:23:37.165Z,101411.63
2018-04-15T01:23:59.994Z,101412.16
2018-04-15T01:24:22.812Z,101416.01
2018-04-15T01:24:44.892Z,101410.86
2018-04-15T01:25:06.948Z,101412.63
2018-04-15T01:25:29.009Z,101415.70
2018-04-15T01:25:51.250Z,101408.70
2018-04-15T01:26:13.303Z,101406.86
2018-04-15T01:26:35.367Z,101408.63
2018-04-15T01:26:57.441Z,101411.70
2018-04-15T01:27:19.496Z,101413.09
2018-04-15T01:27:41.568Z,101409.16
2018-04-15T01:28:03.619Z,101413.09
2018-04-15T01:28:26.440Z,101406.09
2018-04-15T01:28:48.532Z,101409.55
2018-04-15T01:29:10.601Z,101406.48
2018-04-15T01:29:32.657Z,101407.40
2018-04-15T01:29:54.736Z,101411.39
2018-04-15T01:30:16.850Z,101406.94
2018-04-15T01:30:39.677Z,101410.86
2018-04-15T01:31:02.507Z,101408.25
2018-04-15T01:31:25.379Z,101409.16
2018-04-15T01:31:47.440Z,101409.55
2018-04-15T01:32:09.491Z,101407.86
2018-04-15T01:32:32.313Z,101408.31
2018-04-15T01:32:55.134Z,101406.09
2018-04-15T01:33:17.179Z,101402.63
2018-04-15T01:33:39.245Z,101407.09
2018-04-15T01:34:01.303Z,101404.02
2018-04-15T01:34:24.116Z,101405.31
2018-04-15T01:34:46.182Z,101400.94
2018-04-15T01:35:08.274Z,101401.94
2018-04-15T01:35:31.110Z,101407.70
2018-04-15T01:35:53.937Z,101402.32
2018-04-15T01:36:16.808Z,101402.32
2018-04-15T01:36:38.881Z,101400.94
2018-04-15T01:37:00.928Z,101401.86
2018-04-15T01:37:22.989Z,101396.17
2018-04-15T01:37:45.086Z,101401.02
2018-04-15T01:38:07.145Z,101394.41
2018-04-15T01:38:29.210Z,101403.63
2018-04-15T01:38:51.280Z,101394.41
2018-04-15T01:39:13.339Z,101393.94
2018-04-15T01:39:35.381Z,101398.02
2018-04-15T01:39:57.424Z,101398.40
2018-04-15T01:40:20.910Z,101401.02
2018-04-15T01:40:43.724Z,101397.86
2018-04-15T01:41:06.579Z,101398.25
2018-04-15T01:41:29.404Z,101400.48
2018-04-15T01:41:52.222Z,101398.71
2018-04-15T01:42:14.276Z,101394.79
2018-04-15T01:42:36.338Z,101394.41
2018-04-15T01:42:58.398Z,101395.25
2018-04-15T01:43:21.218Z,101393.87
2018-04-15T01:43:43.280Z,101393.94
2018-04-15T01:44:05.348Z,101398.25
2018-04-15T01:44:27.410Z,101394.86
2018-04-15T01:44:49.476Z,101391.72
2018-04-15T01:45:11.522Z,101396.56
2018-04-15T01:45:34.370Z,101390.02
2018-04-15T01:45:56.433Z,101394.41
2018-04-15T01:46:18.487Z,101392.25
2018-04-15T01:46:41.316Z,101395.71
2018-04-15T01:47:04.143Z,101394.48
2018-04-15T01:47:26.196Z,101397.94
2018-04-15T01:47:48.246Z,101394.94
2018-04-15T01:48:10.322Z,101390.94
2018-04-15T01:48:32.381Z,101399.32
2018-04-15T01:48:54.442Z,101391.02
2018-04-15T01:49:17.265Z,101398.94
2018-04-15T01:49:39.332Z,101394.94
2018-04-15T01:50:01.422Z,101401.02
2018-04-15T01:50:23.527Z,101397.94
2018-04-15T01:50:46.378Z,101391.41
2018-04-15T01:51:08.435Z,101399.24
2018-04-15T01:51:30.487Z,101395.33
2018-04-15T01:51:52.552Z,101396.24
2018-04-15T01:52:14.717Z,101400.70
2018-04-15T01:52:37.552Z,101397.09
2018-04-15T01:52:59.618Z,101398.86
2018-04-15T01:53:21.669Z,101399.70
2018-04-15T01:53:43.733Z,101398.09
2018-04-15T01:54:05.856Z,101391.94
2018-04-15T01:54:27.917Z,101394.23
2018-04-15T01:54:49.972Z,101396.39
2018-04-15T01:55:12.795Z,101396.78
2018-04-15T01:55:35.075Z,101399.85
2018-04-15T01:55:57.178Z,101390.78
2018-04-15T01:56:19.246Z,101394.70
2018-04-15T01:56:41.297Z,101390.78
2018-04-15T01:57:04.115Z,101391.31
2018-04-15T01:57:27.012Z,101393.92
2018-04-15T01:57:49.072Z,101391.62
2018-04-15T01:58:11.909Z,101390.31
2018-04-15T01:58:34.728Z,101385.09
2018-04-15T01:58:56.802Z,101390.78
2018-04-15T01:59:18.864Z,101387.78
2018-04-15T01:59:40.920Z,101386.86
2018-04-15T02:00:02.975Z,101388.16
2018-04-15T02:00:25.030Z,101387.31
2018-04-15T02:00:47.856Z,101380.33
2018-04-15T02:01:09.935Z,101384.25
2018-04-15T02:01:31.995Z,101386.86
2018-04-15T02:01:54.821Z,101381.17
2018-04-15T02:02:17.649Z,101383.40
2018-04-15T02:02:40.468Z,101386.78
2018-04-15T02:03:02.671Z,101385.09
2018-04-15T02:03:24.734Z,101382.02
2018-04-15T02:03:47.564Z,101378.94
2018-04-15T02:04:09.630Z,101385.09
2018-04-15T02:04:31.678Z,101382.94
2018-04-15T02:04:53.726Z,101383.02
2018-04-15T02:05:16.544Z,101382.55
2018-04-15T02:05:38.648Z,101376.41
2018-04-15T02:06:00.690Z,101373.33
2018-04-15T02:06:22.776Z,101380.71
2018-04-15T02:06:44.840Z,101379.02
2018-04-15T02:07:07.672Z,101379.55
2018-04-15T02:07:30.496Z,101378.56
2018-04-15T02:07:52.548Z,101369.41
2018-04-15T02:08:14.648Z,101371.17
2018-04-15T02:08:37.470Z,101377.33
2018-04-15T02:09:00.506Z,101371.17
2018-04-15T02:09:22.546Z,101373.33
2018-04-15T02:09:45.391Z,101371.64
2018-04-15T02:10:07.439Z,101375.17
2018-04-15T02:10:29.483Z,101373.33
2018-04-15T02:10:52.319Z,101370.33
2018-04-15T02:11:14.370Z,101371.64
2018-04-15T02:11:36.602Z,101371.25
2018-04-15T02:11:58.655Z,101368.17
2018-04-15T02:12:20.704Z,101371.70
2018-04-15T02:12:43.644Z,101362.63
2018-04-15T02:13:06.456Z,101371.32
2018-04-15T02:13:29.285Z,101363.87
2018-04-15T02:13:51.343Z,101366.48
2018-04-15T02:14:14.160Z,101363.33
2018-04-15T02:14:36.230Z,101366.41
2018-04-15T02:14:58.284Z,101362.48
2018-04-15T02:15:20.341Z,101356.88
2018-04-15T02:15:42.390Z,101360.41
2018-04-15T02:16:04.551Z,101359.48
2018-04-15T02:16:27.396Z,101355.95
2018-04-15T02:16:50.256Z,101357.79
2018-04-15T02:17:12.312Z,101355.18
2018-04-15T02:17:34.376Z,101353.88
2018-04-15T02:17:57.191Z,101352.10
2018-04-15T02:18:19.242Z,101355.56
2018-04-15T02:18:41.292Z,101348.26
2018-04-15T02:19:03.346Z,101357.97
2018-04-15T02:19:25.404Z,101350.41
2018-04-15T02:19:47.451Z,101346.95
2018-04-15T02:20:09.510Z,101352.64
2018-04-15T02:20:32.335Z,101359.74
2018-04-15T02:20:55.157Z,101360.94
2018-04-15T02:21:17.215Z,101352.36
2018-04-15T02:21:39.350Z,101357.27
2018-04-15T02:22:01.439Z,101358.44
2018-04-15T02:22:23.500Z,101354.52
2018-04-15T02:22:45.572Z,101353.20
2018-04-15T02:23:08.386Z,101356.17
2018-04-15T02:23:30.452Z,101360.20
2018-04-15T02:23:52.510Z,101351.80
2018-04-15T02:24:14.614Z,101364.58
2018-04-15T02:24:36.651Z,101358.44
2018-04-15T02:24:59.539Z,101363.28
2018-04-15T02:25:21.588Z,101353.81
2018-04-15T02:25:43.656Z,101358.05
2018-04-15T02:26:05.732Z,101362.50
2018-04-15T02:26:27.785Z,101365.58
2018-04-15T02:26:49.835Z,101362.19
2018-04-15T02:27:11.905Z,101362.80
2018-04-15T02:27:34.727Z,101357.64
2018-04-15T02:27:56.828Z,101358.48
2018-04-15T02:28:18.876Z,101364.64
2018-04-15T02:28:41.700Z,101363.33
2018-04-15T02:29:04.515Z,101360.64
2018-04-15T02:29:26.573Z,101360.25
2018-04-15T02:29:49.419Z,101365.95
2018-04-15T02:30:12.238Z,101361.17
2018-04-15T02:30:35.057Z,101355.03
2018-04-15T02:30:57.894Z,101354.56
2018-04-15T02:31:19.951Z,101355.10
2018-04-15T02:31:42.013Z,101355.95
2018-04-15T02:32:04.064Z,101348.56
2018-04-15T02:32:26.921Z,101351.64
2018-04-15T02:32:48.988Z,101358.63
2018-04-15T02:33:11.052Z,101354.25
2018-04-15T02:33:33.115Z,101355.17
2018-04-15T02:33:55.177Z,101355.56
2018-04-15T02:34:17.251Z,101358.25
2018-04-15T02:34:39.306Z,101358.71
2018-04-15T02:35:02.140Z,101361.33
2018-04-15T02:35:24.214Z,101358.78
2018-04-15T02:35:46.278Z,101353.80
2018-04-15T02:36:09.105Z,101358.17
2018-04-15T02:36:31.925Z,101355.17
2018-04-15T02:36:53.997Z,101363.86
2018-04-15T02:37:44.515Z,101354.18
2018-04-15T02:38:06.577Z,101363.48
2018-04-15T02:38:28.780Z,101356.02
2018-04-15T02:38:51.609Z,101354.25
2018-04-15T02:39:14.426Z,101353.87
2018-04-15T02:39:37.338Z,101364.71
2018-04-15T02:39:59.545Z,101358.48
2018-04-15T02:40:21.605Z,101357.25
2018-04-15T02:40:43.664Z,101352.41
2018-04-15T02:41:05.717Z,101355.80
2018-04-15T02:41:27.773Z,101353.58
2018-04-15T02:41:50.596Z,101357.50
2018-04-15T02:42:12.646Z,101352.66
2018-04-15T02:42:34.717Z,101348.73
2018-04-15T02:42:56.814Z,101354.03
2018-04-15T02:43:18.848Z,101350.50
2018-04-15T02:43:41.031Z,101350.88
2018-04-15T02:44:03.086Z,101359.19
2018-04-15T02:44:25.132Z,101350.35
2018-04-15T02:44:47.957Z,101345.97
2018-04-15T02:45:10.789Z,101352.89
2018-04-15T02:45:33.720Z,101350.73
2018-04-15T02:45:55.767Z,101347.66
2018-04-15T02:46:18.572Z,101351.59
2018-04-15T02:46:42.125Z,101353.73
2018-04-15T02:47:04.180Z,101349.82
2018-04-15T02:47:26.245Z,101351.59
2018-04-15T02:47:48.308Z,101343.36
2018-04-15T02:48:10.392Z,101345.05
2018-04-15T02:48:32.413Z,101352.25
2018-04-15T02:48:54.467Z,101351.91
2018-04-15T02:49:16.524Z,101343.20
2018-04-15T02:49:38.584Z,101347.87
2018-04-15T02:50:01.395Z,101343.48
2018-04-15T02:50:23.447Z,101339.56
2018-04-15T02:50:45.500Z,101341.44
2018-04-15T02:51:07.557Z,101342.18
2018-04-15T02:51:30.376Z,101345.83
2018-04-15T02:51:52.441Z,101350.02
2018-04-15T02:52:14.580Z,101346.95
2018-04-15T02:52:36.632Z,101344.80
2018-04-15T02:52:58.695Z,101349.10
2018-04-15T02:53:20.768Z,101347.34
2018-04-15T02:53:42.832Z,101349.48
2018-04-15T02:54:04.883Z,101345.56
2018-04-15T02:54:26.941Z,101348.19
2018-04-15T02:54:49.764Z,101349.88
2018-04-15T02:55:12.628Z,101348.64
2018-04-15T02:55:34.707Z,101345.56
2018-04-15T02:55:56.763Z,101339.88
2018-04-15T02:56:18.812Z,101349.95
2018-04-15T02:56:40.896Z,101346.41
2018-04-15T02:57:03.716Z,101341.50
2018-04-15T02:57:26.534Z,101340.73
2018-04-15T02:57:49.473Z,101340.12
2018-04-15T02:58:11.531Z,101344.50
2018-04-15T02:58:33.587Z,101346.66
2018-04-15T02:58:55.647Z,101348.42
2018-04-15T02:59:18.466Z,101344.42
2018-04-15T02:59:40.521Z,101345.34
2018-04-15T03:00:02.571Z,101347.89
2018-04-15T03:00:24.633Z,101352.73
2018-04-15T03:00:47.455Z,101344.89
2018-04-15T03:01:09.525Z,101349.27
2018-04-15T03:01:31.589Z,101349.20
2018-04-15T03:01:53.649Z,101351.42
2018-04-15T03:02:15.789Z,101345.27
2018-04-15T03:02:37.848Z,101348.34
2018-04-15T03:03:00.659Z,101352.80
2018-04-15T03:03:22.731Z,101352.34
2018-04-15T03:03:44.804Z,101352.27
2018-04-15T03:04:06.855Z,101350.89
2018-04-15T03:04:28.908Z,101351.34
2018-04-15T03:04:50.960Z,101351.81
2018-04-15T03:05:13.028Z,101351.73
2018-04-15T03:05:35.084Z,101352.66
2018-04-15T03:05:57.127Z,101349.58
2018-04-15T03:06:19.945Z,101351.34
2018-04-15T03:06:42.016Z,101352.20
2018-04-15T03:07:04.068Z,101349.58
2018-04-15T03:07:26.893Z,101353.96
2018-04-15T03:07:48.955Z,101346.89
2018-04-15T03:08:11.782Z,101349.05
2018-04-15T03:08:34.599Z,101349.51
2018-04-15T03:08:56.680Z,101351.66
2018-04-15T03:09:18.885Z,101349.89
2018-04-15T03:09:41.157Z,101349.89
2018-04-15T03:10:03.217Z,101348.13
2018-04-15T03:10:25.293Z,101354.27
2018-04-15T03:10:47.344Z,101347.81
2018-04-15T03:11:09.386Z,101346.05
2018-04-15T03:11:31.452Z,101346.36
2018-04-15T03:11:53.516Z,101354.27
2018-04-15T03:12:15.571Z,101348.59
2018-04-15T03:12:37.624Z,101349.44
2018-04-15T03:13:00.445Z,101349.05
2018-04-15T03:13:23.273Z,101348.59
2018-04-15T03:13:45.327Z,101351.59
2018-04-15T03:14:07.422Z,101349.36
2018-04-15T03:14:30.250Z,101346.82
2018-04-15T03:14:53.177Z,101346.29
2018-04-15T03:15:15.231Z,101343.67
2018-04-15T03:15:37.328Z,101350.67
2018-04-15T03:16:00.149Z,101343.21
2018-04-15T03:16:22.208Z,101344.06
2018-04-15T03:16:44.259Z,101345.44
2018-04-15T03:17:06.316Z,101348.91
2018-04-15T03:17:29.146Z,101348.05
2018-04-15T03:17:51.970Z,101348.05
2018-04-15T03:18:14.030Z,101350.59
2018-04-15T03:18:36.081Z,101351.05
2018-04-15T03:18:58.141Z,101345.37
2018-04-15T03:19:20.990Z,101349.67
2018-04-15T03:19:43.231Z,101347.52
2018-04-15T03:20:05.292Z,101342.22
2018-04-15T03:20:27.352Z,101346.59
2018-04-15T03:20:49.436Z,101343.14
2018-04-15T03:21:12.260Z,101345.37
2018-04-15T03:21:34.331Z,101344.91
2018-04-15T03:21:56.388Z,101345.37
2018-04-15T03:22:18.440Z,101343.98
2018-04-15T03:22:41.251Z,101340.98
2018-04-15T03:23:04.814Z,101345.30
2018-04-15T03:23:27.632Z,101348.37
2018-04-15T03:23:49.671Z,101347.52
2018-04-15T03:24:12.490Z,101344.38
2018-04-15T03:24:34.574Z,101348.37
2018-04-15T03:24:56.615Z,101339.61
2018-04-15T03:25:18.696Z,101341.83
2018-04-15T03:25:40.748Z,101338.76
2018-04-15T03:26:02.800Z,101338.69
2018-04-15T03:26:25.613Z,101345.68
2018-04-15T03:26:48.435Z,101336.92
2018-04-15T03:27:10.483Z,101341.30
2018-04-15T03:27:33.354Z,101331.30
2018-04-15T03:27:55.407Z,101339.92
2018-04-15T03:28:17.463Z,101342.14
2018-04-15T03:28:39.601Z,101336.53
2018-04-15T03:29:01.644Z,101330.38
2018-04-15T03:29:23.706Z,101331.23
2018-04-15T03:29:46.546Z,101334.30
2018-04-15T03:30:09.352Z,101330.77
2018-04-15T03:30:31.395Z,101334.23
2018-04-15T03:30:54.202Z,101335.08
2018-04-15T03:31:16.271Z,101334.30
2018-04-15T03:31:38.332Z,101334.23
2018-04-15T03:32:00.378Z,101330.38
2018-04-15T03:32:23.186Z,101329.47
2018-04-15T03:32:45.261Z,101330.92
2018-04-15T03:33:07.316Z,101336.45
2018-04-15T03:33:29.370Z,101327.23
2018-04-15T03:33:51.430Z,101335.53
2018-04-15T03:34:13.482Z,101333.38
2018-04-15T03:34:36.306Z,101331.23
2018-04-15T03:34:58.401Z,101335.53
2018-04-15T03:35:20.466Z,101331.55
2018-04-15T03:35:43.299Z,101333.77
2018-04-15T03:36:06.122Z,101332.00
2018-04-15T03:36:28.180Z,101336.45
2018-04-15T03:36:50.249Z,101327.70
2018-04-15T03:37:12.312Z,101330.70
2018-04-15T03:37:34.380Z,101322.47
2018-04-15T03:37:56.430Z,101327.70
2018-04-15T03:38:19.246Z,101319.86
2018-04-15T03:38:41.313Z,101318.55
2018-04-15T03:39:03.381Z,101322.08
2018-04-15T03:39:25.439Z,101323.31
2018-04-15T03:39:47.566Z,101324.23
2018-04-15T03:40:09.753Z,101320.24
2018-04-15T03:40:32.570Z,101322.86
2018-04-15T03:40:54.625Z,101317.63
2018-04-15T03:41:16.684Z,101322.40
2018-04-15T03:41:38.807Z,101321.94
2018-04-15T03:42:00.864Z,101318.94
2018-04-15T03:42:22.916Z,101323.25
2018-04-15T03:42:45.022Z,101319.32
2018-04-15T03:43:07.085Z,101322.86
2018-04-15T03:43:29.915Z,101317.09
2018-04-15T03:43:53.500Z,101314.95
2018-04-15T03:44:15.565Z,101320.63
2018-04-15T03:44:37.620Z,101321.94
2018-04-15T03:45:00.439Z,101323.63
2018-04-15T03:45:22.520Z,101322.78
2018-04-15T03:45:44.577Z,101320.55
2018-04-15T03:46:06.690Z,101323.63
2018-04-15T03:46:28.741Z,101328.29
2018-04-15T03:46:51.561Z,101331.36
2018-04-15T03:47:14.375Z,101328.86
2018-04-15T03:47:36.428Z,101329.31
2018-04-15T03:47:59.239Z,101330.16
2018-04-15T03:48:21.313Z,101330.16
2018-04-15T03:48:43.359Z,101333.62
2018-04-15T03:49:05.406Z,101331.75
2018-04-15T03:49:28.228Z,101334.36
2018-04-15T03:49:50.294Z,101332.13
2018-04-15T03:50:12.349Z,101323.83
2018-04-15T03:50:34.403Z,101332.13
2018-04-15T03:50:57.224Z,101329.59
2018-04-15T03:51:20.061Z,101328.67
2018-04-15T03:51:42.874Z,101325.22
2018-04-15T03:52:04.922Z,101330.44
2018-04-15T03:52:27.744Z,101331.36
2018-04-15T03:52:50.567Z,101333.98
2018-04-15T03:53:12.629Z,101332.67
2018-04-15T03:53:34.685Z,101331.75
2018-04-15T03:53:56.735Z,101331.82
2018-04-15T03:54:19.570Z,101334.36
2018-04-15T03:54:42.405Z,101336.98
2018-04-15T03:55:05.286Z,101336.13
2018-04-15T03:55:27.376Z,101333.44
2018-04-15T03:55:49.435Z,101335.28
2018-04-15T03:56:11.636Z,101336.52
2018-04-15T03:56:33.686Z,101332.13
2018-04-15T03:56:55.735Z,101335.20
2018-04-15T03:57:18.549Z,101339.13
2018-04-15T03:57:40.610Z,101336.05
2018-04-15T03:58:02.674Z,101336.98
2018-04-15T03:58:24.734Z,101335.59
2018-04-15T03:58:46.784Z,101337.83
2018-04-15T03:59:08.851Z,101341.28
2018-04-15T03:59:31.669Z,101340.82
2018-04-15T03:59:53.720Z,101341.67
2018-04-15T04:00:15.772Z,101343.51
2018-04-15T04:00:37.848Z,101339.13
2018-04-15T04:01:00.678Z,101339.52
2018-04-15T04:01:23.501Z,101340.44
2018-04-15T04:01:45.550Z,101335.52
2018-04-15T04:02:07.614Z,101343.36
2018-04-15T04:02:29.667Z,101337.28
2018-04-15T04:02:52.484Z,101338.59
2018-04-15T04:03:14.534Z,101336.44
2018-04-15T04:03:36.587Z,101337.36
2018-04-15T04:03:58.664Z,101335.59
2018-04-15T04:04:20.717Z,101341.74
2018-04-15T04:04:42.738Z,101344.28
2018-04-15T04:05:11.041Z,101340.36
2018-04-15T04:05:33.855Z,101349.13
2018-04-15T04:05:55.912Z,101339.44
2018-04-15T04:06:17.970Z,101339.83
2018-04-15T04:06:40.019Z,101340.28
2018-04-15T04:07:02.080Z,101338.13
2018-04-15T04:07:24.160Z,101342.05
2018-04-15T04:07:47.054Z,101342.05
2018-04-15T04:08:09.201Z,101347.73
2018-04-15T04:08:31.248Z,101341.59
2018-04-15T04:08:54.078Z,101339.37
2018-04-15T04:09:16.900Z,101338.91
2018-04-15T04:09:38.955Z,101341.13
2018-04-15T04:10:01.003Z,101341.13
2018-04-15T04:10:23.069Z,101345.91
2018-04-15T04:10:45.912Z,101341.13
2018-04-15T04:11:07.969Z,101343.17
2018-04-15T04:11:30.027Z,101348.52
2018-04-15T04:11:52.845Z,101344.48
2018-04-15T04:12:15.748Z,101343.67
2018-04-15T04:12:37.800Z,101343.67
2018-04-15T04:12:59.845Z,101344.48
2018-04-15T04:13:22.753Z,101346.17
2018-04-15T04:13:44.840Z,101348.41
2018-04-15T04:14:06.898Z,101348.91
2018-04-15T04:14:28.986Z,101346.64
2018-04-15T04:14:51.040Z,101346.64